Salida, CO (81201)

4:53 AM MDT on September 05, 2015 (GMT -0600)
Elk Trail | | Change Station
CLOSE
Current Station
Personal Weather Station
Location: Salida, CO
Elevation: 8130 ft
Nearby Weather Stations

Elev 8130 ft 38.55 °N, 106.12 °W | Updated 38 seconds ago

Overcast
Overcast
54.1 °F
Feels Like 54.1 °F
N
12.0
Wind Variable Wind from WSW
Gusts 19.0 mph

Today
High -- | Low -- °F
--% Chance of Precip.
Yesterday
High -- | Low -- °F
Precip. -- in
6:36 AM 7:28 PM
Waning Gibbous, 50% visible
Pressure 30.27 in
Visibility 10.0 miles
Clouds Overcast 9500 ft
Dew Point 46 °F
Humidity 75%
Rainfall 0.00 in
Snow Depth Not available.
UV 0 out of 12
Pollen 9.90 out of 12
Air Quality Not available.
Flu Activity Not available.
METAR KANK 051035Z AUTO 24006KT 10SM OVC095 16/10 A3027 RMK AO1 T01560097
Pressure 30.27 in
Visibility 10.0 miles
Clouds Overcast 9500 ft
Dew Point 46 °F
Humidity 75%
Rainfall 0.00 in
Snow Depth Not available.
UV 0 out of 12
Pollen 9.90 out of 12
Air Quality Not available.
Flu Activity Not available.
METAR KANK 051035Z AUTO 24006KT 10SM OVC095 16/10 A3027 RMK AO1 T01560097

10-Day Weather Forecast

×

Almanac

Astronomy

Sep. 05, 2015 Rise Set
Actual Time
Civil Twilight
Nautical Twilight
Astronomical Twilight
Moon
Length of Visible Light
Length of Day
Tomorrow will be .
, % of the Moon is Illuminated

Today's Extremes

State Highs State Lows

Community

WunderPhotos

Upload Photos

1,852,439 photos uploaded!

WunderBlogs® & News

Nearby

Air Quality

  Air Quality AQ Index Pollutant
Not available.

Snow Depth

Station Depth Elevation

Earthquake Activity

City Distance Mag. Time & Date
Minimum magnitude displayed is 2.5.

Coastal Water Temperatures

Place Temperature

Stations

Nearby Weather Stations

Station Location Temp. Windchill Dew Point Humidity Wind Precip. Elev Updated Type